Time;durP1;ratioP1;P1;durP2;ratioP2;P2;SDS_P1;SDS_P2;PMS_P1;PMS_P2;Temp;Humidity;BMP_temperature;BMP_pressure;BME280_temperature;BME280_humidity;BME280_pressure;Samples;Min_cycle;Max_cycle;Signal;HPM_P1;HPM_P2
2022/03/13 00:02:20;;;;;;;16.20;8.00;;;11.80;81.10;;;;;;4950788;28;20035;-68
2022/03/13 00:04:50;;;;;;;17.00;8.32;;;11.70;80.90;;;;;;4946661;28;20036;-69
2022/03/13 00:07:21;;;;;;;18.13;7.25;;;11.80;80.90;;;;;;4932001;28;20043;-68
2022/03/13 00:09:49;;;;;;;16.88;8.93;;;11.70;81.60;;;;;;4932327;28;20445;-68
2022/03/13 00:12:18;;;;;;;14.65;8.38;;;11.70;81.70;;;;;;4950637;28;20475;-68
2022/03/13 00:14:44;;;;;;;11.10;6.03;;;11.60;82.30;;;;;;4951302;28;20043;-68
2022/03/13 00:17:15;;;;;;;17.80;8.68;;;11.60;82.20;;;;;;4957482;28;20386;-68
2022/03/13 00:19:41;;;;;;;16.25;8.60;;;11.60;82.10;;;;;;4954605;28;20063;-68
2022/03/13 00:22:07;;;;;;;17.80;7.65;;;11.60;82.00;;;;;;4951520;28;20070;-68
2022/03/13 00:24:33;;;;;;;16.58;8.27;;;11.50;82.20;;;;;;4951173;28;20035;-69
2022/03/13 00:27:00;;;;;;;12.18;7.15;;;11.60;82.40;;;;;;4950396;28;20122;-68
2022/03/13 00:29:28;;;;;;;16.25;7.40;;;11.50;82.40;;;;;;4956879;28;20039;-68
2022/03/13 00:31:53;;;;;;;14.35;7.80;;;11.50;82.20;;;;;;4942197;28;20372;-68
2022/03/13 00:34:19;;;;;;;13.65;7.07;;;11.50;81.30;;;;;;4947824;28;20371;-68
2022/03/13 00:36:45;;;;;;;21.75;7.75;;;11.40;81.70;;;;;;4950044;28;20042;-68
2022/03/13 00:39:11;;;;;;;16.25;8.23;;;11.40;81.40;;;;;;4950944;28;20024;-71
2022/03/13 00:41:38;;;;;;;9.90;5.40;;;11.40;81.10;;;;;;4939242;28;20093;-70
2022/03/13 00:44:04;;;;;;;11.00;6.03;;;11.40;82.10;;;;;;4944108;28;20035;-68
2022/03/13 00:46:31;;;;;;;15.85;8.15;;;11.30;82.20;;;;;;4931647;28;20136;-68
2022/03/13 00:49:02;;;;;;;14.23;7.20;;;11.30;81.40;;;;;;4949488;28;20036;-68
2022/03/13 00:51:27;;;;;;;10.35;4.13;;;11.30;81.60;;;;;;4950611;28;20107;-68
2022/03/13 00:53:53;;;;;;;17.25;9.02;;;11.20;82.60;;;;;;4950213;28;20642;-68
2022/03/13 00:56:18;;;;;;;16.17;6.70;;;11.20;82.00;;;;;;4938001;28;20690;-68
2022/03/13 00:58:44;;;;;;;14.57;7.22;;;11.20;82.10;;;;;;4950359;28;20048;-68
2022/03/13 01:01:11;;;;;;;12.00;6.63;;;11.10;82.30;;;;;;4936371;28;20055;-68
2022/03/13 01:03:36;;;;;;;11.77;6.68;;;11.10;82.90;;;;;;4931550;28;20564;-68
2022/03/13 01:06:07;;;;;;;13.73;7.43;;;11.10;82.90;;;;;;4932689;28;20054;-68
2022/03/13 01:08:33;;;;;;;12.50;7.53;;;11.00;83.10;;;;;;4937017;28;20126;-68
2022/03/13 01:11:00;;;;;;;10.85;6.25;;;11.10;83.20;;;;;;4950478;28;20122;-68
2022/03/13 01:13:26;;;;;;;15.30;7.45;;;11.00;83.50;;;;;;4951701;28;20044;-68
2022/03/13 01:15:59;;;;;;;16.30;7.32;;;11.00;82.80;;;;;;4940525;28;20526;-68
2022/03/13 01:18:27;;;;;;;15.13;7.28;;;11.00;82.90;;;;;;4960113;28;20032;-68
2022/03/13 01:20:53;;;;;;;16.50;7.00;;;11.00;83.00;;;;;;4948874;28;20063;-68
2022/03/13 01:23:19;;;;;;;18.98;7.53;;;11.00;83.20;;;;;;4948531;28;20106;-68
2022/03/13 01:26:05;;;;;;;11.55;6.60;;;10.90;82.50;;;;;;4950499;28;20035;-68
2022/03/13 01:28:30;;;;;;;12.88;6.85;;;10.90;82.90;;;;;;4953398;28;20046;-68
2022/03/13 01:30:56;;;;;;;17.17;7.38;;;10.90;82.60;;;;;;4953585;28;20166;-68
2022/03/13 01:33:21;;;;;;;14.93;7.32;;;10.80;82.40;;;;;;4941957;28;20047;-69
2022/03/13 01:35:47;;;;;;;14.35;7.07;;;10.80;82.40;;;;;;4944886;28;20391;-68
2022/03/13 01:38:14;;;;;;;10.30;4.72;;;10.80;82.50;;;;;;4974705;28;20072;-68
2022/03/13 01:40:40;;;;;;;13.73;6.93;;;10.80;83.20;;;;;;4958656;28;20081;-68
2022/03/13 01:43:08;;;;;;;13.50;6.95;;;10.70;83.00;;;;;;4941419;28;20032;-68
2022/03/13 01:45:35;;;;;;;13.88;6.82;;;10.70;83.00;;;;;;4973006;28;20116;-68
2022/03/13 01:48:01;;;;;;;15.52;7.00;;;10.70;82.80;;;;;;4981205;28;20123;-69
2022/03/13 01:50:27;;;;;;;11.35;5.90;;;10.70;83.10;;;;;;4949254;28;20027;-69
2022/03/13 01:52:52;;;;;;;15.13;7.80;;;10.60;83.60;;;;;;4949944;28;20034;-68
2022/03/13 01:55:18;;;;;;;16.85;7.95;;;10.60;83.10;;;;;;5008892;28;20031;-69
2022/03/13 01:57:45;;;;;;;16.85;7.50;;;10.60;83.20;;;;;;4949468;28;20079;-68
2022/03/13 02:00:16;;;;;;;12.65;7.80;;;10.60;83.40;;;;;;4948633;28;20031;-68
2022/03/13 02:02:45;;;;;;;15.45;7.43;;;10.60;82.40;;;;;;4950063;28;20051;-68
2022/03/13 02:05:26;;;;;;;12.88;6.97;;;10.60;82.40;;;;;;4931187;28;20027;-68
2022/03/13 02:07:51;;;;;;;12.82;7.57;;;10.60;83.10;;;;;;4944568;28;20070;-68
2022/03/13 02:10:17;;;;;;;18.08;8.32;;;10.50;82.30;;;;;;4941960;28;20098;-68
2022/03/13 02:12:42;;;;;;;17.73;7.95;;;10.60;81.70;;;;;;5001200;28;20032;-68
2022/03/13 02:15:09;;;;;;;9.45;5.20;;;10.60;81.40;;;;;;4930970;28;20084;-68
2022/03/13 02:17:35;;;;;;;15.65;7.35;;;10.50;81.50;;;;;;4942942;28;20027;-68
2022/03/13 02:20:01;;;;;;;15.90;8.43;;;10.50;81.00;;;;;;4948035;28;20065;-69
2022/03/13 02:22:27;;;;;;;13.48;6.45;;;10.50;80.50;;;;;;4949517;28;20038;-68
2022/03/13 02:24:53;;;;;;;16.27;8.10;;;10.40;80.50;;;;;;4949669;28;20027;-68
2022/03/13 02:27:25;;;;;;;16.42;8.65;;;10.40;80.50;;;;;;4941497;28;20063;-68
2022/03/13 02:29:54;;;;;;;12.93;6.20;;;10.50;79.40;;;;;;4954956;28;20054;-68
2022/03/13 02:32:22;;;;;;;15.07;7.18;;;10.40;79.70;;;;;;4941052;28;20035;-68
2022/03/13 02:34:48;;;;;;;15.05;7.40;;;10.40;80.00;;;;;;4949346;28;20047;-68
2022/03/13 02:37:37;;;;;;;26.83;7.57;;;10.40;79.30;;;;;;4943736;28;20039;-68
2022/03/13 02:40:03;;;;;;;14.63;6.95;;;10.40;79.20;;;;;;4933005;28;20036;-68
2022/03/13 02:42:29;;;;;;;15.38;8.07;;;10.40;79.50;;;;;;4934110;28;20039;-69
2022/03/13 02:44:55;;;;;;;20.88;7.63;;;10.30;79.50;;;;;;4959067;28;20097;-68
2022/03/13 02:47:20;;;;;;;13.98;7.30;;;10.40;79.40;;;;;;4999994;28;20027;-68
2022/03/13 02:49:46;;;;;;;13.43;7.38;;;10.30;79.10;;;;;;4952545;28;20039;-68
2022/03/13 02:52:13;;;;;;;16.98;8.60;;;10.30;78.50;;;;;;4952659;28;20035;-68
2022/03/13 02:54:38;;;;;;;16.10;7.53;;;10.30;78.20;;;;;;4951047;28;20096;-68
2022/03/13 02:57:04;;;;;;;13.10;7.45;;;10.30;78.90;;;;;;4952409;28;20049;-68
2022/03/13 02:59:30;;;;;;;13.75;7.53;;;10.30;78.70;;;;;;4947265;28;20087;-68
2022/03/13 03:02:23;;;;;;;15.68;7.93;;;10.20;78.90;;;;;;4946334;28;20104;-68
2022/03/13 03:04:54;;;;;;;13.85;7.30;;;10.20;79.40;;;;;;4951198;28;20069;-68
2022/03/13 03:07:20;;;;;;;16.20;7.35;;;10.20;79.70;;;;;;4949642;28;20125;-68
2022/03/13 03:09:46;;;;;;;15.43;8.00;;;10.20;79.80;;;;;;4940563;28;20066;-68
2022/03/13 03:12:11;;;;;;;17.67;8.02;;;10.20;79.50;;;;;;4952110;28;20086;-68
2022/03/13 03:14:37;;;;;;;12.30;6.28;;;10.20;79.70;;;;;;4951702;28;20035;-69
2022/03/13 03:17:04;;;;;;;18.75;8.68;;;10.20;79.40;;;;;;4952089;28;20062;-68
2022/03/13 03:19:30;;;;;;;15.40;8.50;;;10.20;78.90;;;;;;4952277;28;20062;-68
2022/03/13 03:21:56;;;;;;;14.10;8.38;;;10.20;78.90;;;;;;4944232;28;20024;-68
2022/03/13 03:24:24;;;;;;;16.48;7.35;;;10.20;78.60;;;;;;4951871;28;20466;-68
2022/03/13 03:26:51;;;;;;;24.23;7.70;;;10.10;78.60;;;;;;4951967;28;20039;-68
2022/03/13 03:29:17;;;;;;;19.20;7.72;;;10.10;79.20;;;;;;4952024;28;20095;-69
2022/03/13 03:31:49;;;;;;;13.90;7.75;;;10.10;79.20;;;;;;4934444;28;20043;-68
2022/03/13 03:34:17;;;;;;;15.02;8.40;;;10.10;79.00;;;;;;4951077;28;20129;-68
2022/03/13 03:36:46;;;;;;;15.40;8.85;;;10.20;79.10;;;;;;4951054;28;20398;-68
2022/03/13 03:39:12;;;;;;;18.05;8.38;;;10.10;78.50;;;;;;4944348;28;20043;-68
2022/03/13 03:41:42;;;;;;;15.20;8.27;;;10.10;78.30;;;;;;4951462;28;20031;-68
2022/03/13 03:44:08;;;;;;;14.45;8.10;;;10.10;78.10;;;;;;4946925;28;20036;-68
2022/03/13 03:46:35;;;;;;;14.07;8.15;;;10.10;78.00;;;;;;4984555;28;20432;-69
2022/03/13 03:49:01;;;;;;;14.30;8.15;;;10.10;78.20;;;;;;5000845;28;20078;-69
2022/03/13 03:51:26;;;;;;;20.08;9.50;;;10.10;78.60;;;;;;4993222;28;20146;-68
2022/03/13 03:53:52;;;;;;;13.48;8.30;;;10.00;78.50;;;;;;5019476;28;20030;-68
2022/03/13 03:56:18;;;;;;;16.38;8.35;;;10.00;78.30;;;;;;5011337;28;20029;-68
2022/03/13 03:58:44;;;;;;;17.20;7.72;;;10.00;77.90;;;;;;5004841;28;20053;-69
2022/03/13 04:01:09;;;;;;;17.50;8.75;;;10.00;77.90;;;;;;5014475;28;20081;-68
2022/03/13 04:03:35;;;;;;;22.20;8.85;;;10.00;77.80;;;;;;4980411;28;20026;-68
2022/03/13 04:06:03;;;;;;;16.83;8.25;;;9.90;77.60;;;;;;5017313;28;20025;-69
2022/03/13 04:08:29;;;;;;;12.60;7.32;;;9.90;77.40;;;;;;5030423;28;20508;-68
2022/03/13 04:10:55;;;;;;;14.48;7.68;;;9.90;77.50;;;;;;4985534;28;20029;-69
2022/03/13 04:13:21;;;;;;;15.35;8.43;;;9.90;78.00;;;;;;5014068;28;20112;-69
2022/03/13 04:15:46;;;;;;;15.82;8.02;;;9.90;78.40;;;;;;4998341;28;20032;-68
2022/03/13 04:18:13;;;;;;;13.77;7.13;;;9.90;78.90;;;;;;4976166;28;20441;-69
2022/03/13 04:20:39;;;;;;;12.60;6.97;;;9.90;79.10;;;;;;4988873;28;20081;-68
2022/03/13 04:23:04;;;;;;;11.75;5.63;;;9.90;80.20;;;;;;5007471;28;20022;-68
2022/03/13 04:25:30;;;;;;;14.90;8.38;;;9.90;81.00;;;;;;4988261;28;20033;-68
2022/03/13 04:27:57;;;;;;;15.35;7.55;;;9.90;80.90;;;;;;4992286;28;20038;-69
2022/03/13 04:30:22;;;;;;;16.25;8.38;;;9.90;81.20;;;;;;5020173;28;20045;-68
2022/03/13 04:32:48;;;;;;;15.32;7.45;;;9.90;81.20;;;;;;4957302;28;20057;-68
2022/03/13 04:35:14;;;;;;;15.88;7.38;;;9.90;81.30;;;;;;4951116;28;20046;-68
2022/03/13 04:37:40;;;;;;;10.82;6.25;;;9.90;81.30;;;;;;4951168;28;20119;-68
2022/03/13 04:40:06;;;;;;;16.60;8.27;;;9.90;82.30;;;;;;4950772;28;20035;-68
2022/03/13 04:42:32;;;;;;;12.63;8.10;;;9.90;82.40;;;;;;4938462;28;20105;-68
2022/03/13 04:44:57;;;;;;;16.67;7.35;;;9.90;82.50;;;;;;4962706;28;20119;-69
2022/03/13 04:47:23;;;;;;;16.10;7.82;;;9.80;83.00;;;;;;4986356;28;20044;-68
2022/03/13 04:49:48;;;;;;;15.98;7.28;;;9.80;82.80;;;;;;4947780;28;20043;-68
2022/03/13 04:52:14;;;;;;;15.10;7.30;;;9.80;82.90;;;;;;4940122;28;20038;-68
2022/03/13 04:54:40;;;;;;;14.45;6.90;;;9.80;83.40;;;;;;4942314;28;20113;-68
2022/03/13 04:57:06;;;;;;;14.90;7.10;;;9.80;83.10;;;;;;4971012;28;20077;-68
2022/03/13 04:59:31;;;;;;;14.73;7.63;;;9.70;84.00;;;;;;4949443;28;20112;-68
2022/03/13 05:01:59;;;;;;;5.22;2.78;;;9.70;83.70;;;;;;4938842;28;20031;-68
2022/03/13 05:04:24;;;;;;;14.55;7.28;;;9.70;84.50;;;;;;4938380;28;20039;-68
2022/03/13 05:06:50;;;;;;;12.02;7.28;;;9.60;84.50;;;;;;4948934;28;20045;-68
2022/03/13 05:09:15;;;;;;;12.55;6.85;;;9.60;84.80;;;;;;4949917;28;20035;-68
2022/03/13 05:11:41;;;;;;;14.63;7.97;;;9.60;85.00;;;;;;4938121;29;20035;-68
2022/03/13 05:14:07;;;;;;;13.73;6.60;;;9.50;84.60;;;;;;4949348;28;20118;-68
2022/03/13 05:16:32;;;;;;;9.73;5.28;;;9.50;85.00;;;;;;4937693;28;20059;-68
2022/03/13 05:18:58;;;;;;;10.95;4.57;;;9.50;85.40;;;;;;4937937;28;20138;-68
2022/03/13 05:21:24;;;;;;;13.93;8.10;;;9.50;85.50;;;;;;4936815;28;20039;-68
2022/03/13 05:23:49;;;;;;;15.57;8.27;;;9.50;85.80;;;;;;4937276;28;20038;-68
2022/03/13 05:26:15;;;;;;;14.95;5.95;;;9.50;85.50;;;;;;4950413;28;20089;-68
2022/03/13 05:28:40;;;;;;;15.73;6.38;;;9.50;85.40;;;;;;4949536;28;20668;-68
2022/03/13 05:31:06;;;;;;;17.13;7.90;;;9.50;85.20;;;;;;4950342;28;20475;-68
2022/03/13 05:33:32;;;;;;;14.30;7.15;;;9.50;84.80;;;;;;4937352;28;20497;-68
2022/03/13 05:35:59;;;;;;;11.68;5.72;;;9.40;84.70;;;;;;4937467;28;20372;-68
2022/03/13 05:38:24;;;;;;;21.30;7.85;;;9.40;84.90;;;;;;4943597;28;20575;-68
2022/03/13 05:40:51;;;;;;;13.00;6.97;;;9.40;83.70;;;;;;4931205;28;20063;-68
2022/03/13 05:43:22;;;;;;;16.15;7.60;;;9.40;83.30;;;;;;4930465;28;20518;-68
2022/03/13 05:45:47;;;;;;;15.88;7.30;;;9.40;83.20;;;;;;4988001;28;20100;-68
2022/03/13 05:48:20;;;;;;;18.00;8.20;;;9.30;82.30;;;;;;4961397;28;20078;-68
2022/03/13 05:50:46;;;;;;;10.20;6.28;;;9.30;81.50;;;;;;4949258;28;20106;-68
2022/03/13 05:53:11;;;;;;;16.25;7.68;;;9.30;81.50;;;;;;4944446;28;20027;-68
2022/03/13 05:55:37;;;;;;;13.27;6.80;;;9.20;80.60;;;;;;4956236;28;20056;-68
2022/03/13 05:58:04;;;;;;;15.90;7.95;;;9.20;80.00;;;;;;4941484;28;20043;-68
2022/03/13 06:00:32;;;;;;;13.43;7.75;;;9.20;78.90;;;;;;4938182;28;20127;-68
2022/03/13 06:02:59;;;;;;;13.82;7.55;;;9.10;78.70;;;;;;4949030;28;20090;-68
2022/03/13 06:05:25;;;;;;;14.43;6.95;;;9.10;78.00;;;;;;4949541;28;20131;-68
2022/03/13 06:07:51;;;;;;;16.13;8.25;;;9.10;77.90;;;;;;4940725;28;20126;-68
2022/03/13 06:10:18;;;;;;;19.52;7.43;;;9.00;77.30;;;;;;4951901;28;20043;-68
2022/03/13 06:12:44;;;;;;;16.52;7.75;;;9.00;77.50;;;;;;4941254;28;20443;-68
2022/03/13 06:15:11;;;;;;;12.80;6.72;;;9.00;77.70;;;;;;4953251;28;20047;-68
2022/03/13 06:17:46;;;;;;;10.57;6.03;;;8.90;77.40;;;;;;4952621;28;20032;-68
2022/03/13 06:20:14;;;;;;;12.98;7.53;;;8.90;77.50;;;;;;4952388;28;20422;-68
2022/03/13 06:22:46;;;;;;;13.73;7.63;;;8.90;77.60;;;;;;4953119;28;20050;-68
2022/03/13 06:25:13;;;;;;;13.32;6.93;;;8.90;77.00;;;;;;4936897;28;20031;-68
2022/03/13 06:27:40;;;;;;;12.10;6.78;;;8.90;77.00;;;;;;4945026;28;20063;-68
2022/03/13 06:30:13;;;;;;;17.95;7.30;;;8.90;77.30;;;;;;4934916;28;20063;-68
2022/03/13 06:32:52;;;;;;;22.20;7.35;;;8.90;77.10;;;;;;4945944;28;20042;-68
2022/03/13 06:35:20;;;;;;;11.05;7.28;;;8.90;76.90;;;;;;4942269;28;20114;-68
2022/03/13 06:37:50;;;;;;;10.82;5.45;;;8.90;77.80;;;;;;4951885;28;20109;-68
2022/03/13 06:40:20;;;;;;;13.73;6.88;;;8.90;78.30;;;;;;4943086;28;20038;-68
2022/03/13 06:42:49;;;;;;;12.23;4.72;;;8.90;79.00;;;;;;4950449;28;20027;-68
2022/03/13 06:45:17;;;;;;;12.25;5.97;;;9.00;80.60;;;;;;4974426;28;20021;-67
2022/03/13 06:47:44;;;;;;;11.43;5.55;;;9.00;80.40;;;;;;4981760;28;20035;-67
2022/03/13 06:50:13;;;;;;;13.75;5.90;;;9.00;80.50;;;;;;5007692;28;20099;-68
2022/03/13 06:52:39;;;;;;;8.48;4.65;;;9.00;80.80;;;;;;4969380;28;20727;-68
2022/03/13 06:55:05;;;;;;;9.90;4.95;;;9.00;80.90;;;;;;5031977;28;20034;-68
2022/03/13 06:57:31;;;;;;;14.95;6.85;;;9.00;81.30;;;;;;5008735;28;20057;-68
2022/03/13 07:00:00;;;;;;;11.35;5.70;;;9.00;81.70;;;;;;5009497;28;20060;-67
2022/03/13 07:02:26;;;;;;;9.43;4.70;;;9.00;82.90;;;;;;5008165;28;20035;-67
2022/03/13 07:04:52;;;;;;;10.48;6.05;;;9.00;82.50;;;;;;4991561;28;20026;-67
2022/03/13 07:07:17;;;;;;;15.60;6.63;;;9.00;81.30;;;;;;4980983;28;20047;-67
2022/03/13 07:09:43;;;;;;;13.68;5.72;;;9.00;81.90;;;;;;5030465;28;20045;-67
2022/03/13 07:12:11;;;;;;;12.15;5.45;;;9.00;82.00;;;;;;5021130;28;20030;-67
2022/03/13 07:14:38;;;;;;;12.55;5.95;;;9.00;82.40;;;;;;4998148;28;20041;-67
2022/03/13 07:17:04;;;;;;;14.20;6.07;;;9.00;82.80;;;;;;5001383;28;20043;-68
2022/03/13 07:19:29;;;;;;;8.27;4.05;;;9.10;82.60;;;;;;5000577;28;20038;-68
2022/03/13 07:21:55;;;;;;;16.90;7.88;;;9.10;83.30;;;;;;4950365;28;20024;-68
2022/03/13 07:24:20;;;;;;;11.93;6.55;;;9.10;83.50;;;;;;4976476;28;20484;-67
2022/03/13 07:26:46;;;;;;;11.55;6.40;;;9.10;83.20;;;;;;4989705;28;20049;-68
2022/03/13 07:29:12;;;;;;;9.73;5.38;;;9.10;82.50;;;;;;4989543;28;20032;-68
2022/03/13 07:31:37;;;;;;;10.10;6.82;;;9.10;82.60;;;;;;5006629;28;20123;-68
2022/03/13 07:34:03;;;;;;;13.50;5.50;;;9.10;81.90;;;;;;4985738;28;20054;-68
2022/03/13 07:36:29;;;;;;;16.48;6.07;;;9.10;81.30;;;;;;4963752;28;20042;-68
2022/03/13 07:38:54;;;;;;;7.28;3.75;;;9.10;81.20;;;;;;4987234;28;20047;-67
2022/03/13 07:41:20;;;;;;;15.35;7.68;;;9.10;81.50;;;;;;4960373;28;20019;-69
2022/03/13 07:43:46;;;;;;;15.23;7.22;;;9.10;80.40;;;;;;4983996;28;20033;-69
2022/03/13 07:46:12;;;;;;;14.60;6.90;;;9.10;79.70;;;;;;4989981;28;20027;-69
2022/03/13 07:48:38;;;;;;;13.02;6.63;;;9.10;79.60;;;;;;4995862;28;20397;-69
2022/03/13 07:51:05;;;;;;;11.15;5.93;;;9.10;79.20;;;;;;5007562;28;20033;-69
2022/03/13 07:53:31;;;;;;;11.80;6.70;;;9.20;79.80;;;;;;4991371;28;20405;-69
2022/03/13 07:55:57;;;;;;;11.73;6.07;;;9.20;79.60;;;;;;5008054;28;20037;-69
2022/03/13 07:58:23;;;;;;;14.18;6.57;;;9.20;79.30;;;;;;4998759;28;20049;-69
2022/03/13 08:00:50;;;;;;;13.10;7.13;;;9.20;79.30;;;;;;4991203;28;20048;-69
2022/03/13 08:03:17;;;;;;;13.50;6.95;;;9.20;79.30;;;;;;4995069;28;20044;-69
2022/03/13 08:05:43;;;;;;;10.40;5.78;;;9.20;79.00;;;;;;5008936;28;20068;-69
2022/03/13 08:08:09;;;;;;;12.48;6.90;;;9.20;79.20;;;;;;5008226;28;20473;-69
2022/03/13 08:10:34;;;;;;;14.18;7.68;;;9.30;78.60;;;;;;4985431;28;20517;-69
2022/03/13 08:13:00;;;;;;;8.52;3.42;;;9.30;79.10;;;;;;5007127;28;20035;-69
2022/03/13 08:15:26;;;;;;;12.60;6.47;;;9.30;80.40;;;;;;4982936;28;20035;-69
2022/03/13 08:17:52;;;;;;;11.77;6.13;;;9.30;80.40;;;;;;5020440;28;20523;-70
2022/03/13 08:20:20;;;;;;;9.55;5.68;;;9.40;80.90;;;;;;4986867;28;20391;-70
2022/03/13 08:22:46;;;;;;;10.77;4.53;;;9.40;81.40;;;;;;4987025;28;20428;-71
2022/03/13 08:25:16;;;;;;;11.48;5.60;;;9.40;82.40;;;;;;4994534;28;20029;-71
2022/03/13 08:27:45;;;;;;;4.03;2.50;;;9.40;82.50;;;;;;4981197;28;20503;-69
2022/03/13 08:30:12;;;;;;;11.85;5.95;;;9.40;83.30;;;;;;4985891;28;20060;-71
2022/03/13 08:32:38;;;;;;;8.85;4.47;;;9.50;83.00;;;;;;4995394;28;20465;-70
2022/03/13 08:35:08;;;;;;;11.45;5.22;;;9.50;83.50;;;;;;4977184;28;20042;-70
2022/03/13 08:37:36;;;;;;;14.82;6.32;;;9.50;83.60;;;;;;4971550;28;20036;-70
2022/03/13 08:40:04;;;;;;;7.40;4.40;;;9.60;84.20;;;;;;4998245;28;20116;-72
2022/03/13 08:42:33;;;;;;;7.93;4.25;;;9.60;84.30;;;;;;4979825;28;20382;-70
2022/03/13 08:45:02;;;;;;;10.50;6.20;;;9.60;84.80;;;;;;4964469;28;20044;-70
2022/03/13 08:47:28;;;;;;;13.30;7.20;;;9.70;84.70;;;;;;4988445;28;20380;-72
2022/03/13 08:49:54;;;;;;;8.75;3.92;;;9.70;84.70;;;;;;4962409;28;20046;-70
2022/03/13 08:52:20;;;;;;;15.07;6.03;;;9.80;85.20;;;;;;4975650;28;20038;-68
2022/03/13 08:54:46;;;;;;;7.88;3.03;;;9.80;84.70;;;;;;5003282;28;20029;-69
2022/03/13 08:57:12;;;;;;;11.27;4.80;;;9.90;85.00;;;;;;4992636;28;20032;-68
2022/03/13 08:59:38;;;;;;;19.40;7.68;;;9.80;85.00;;;;;;4994831;28;20055;-68
2022/03/13 09:02:05;;;;;;;14.57;7.03;;;9.90;84.30;;;;;;4978924;28;20058;-69
2022/03/13 09:04:31;;;;;;;12.57;6.82;;;10.00;82.00;;;;;;4943191;28;20122;-68
2022/03/13 09:06:57;;;;;;;14.23;7.35;;;10.00;81.80;;;;;;4953568;28;20034;-68
2022/03/13 09:09:25;;;;;;;14.07;7.88;;;10.00;81.20;;;;;;4959872;28;20743;-69
2022/03/13 09:11:51;;;;;;;9.88;5.05;;;10.00;79.90;;;;;;4959458;28;20106;-68
2022/03/13 09:14:18;;;;;;;11.73;5.75;;;10.00;80.20;;;;;;4958840;28;20159;-69
2022/03/13 09:16:47;;;;;;;13.52;7.15;;;10.00;79.90;;;;;;4959598;28;20033;-68
2022/03/13 09:19:14;;;;;;;12.90;6.32;;;10.10;79.50;;;;;;4947982;28;20482;-67
2022/03/13 09:21:40;;;;;;;13.43;7.25;;;10.10;80.40;;;;;;4961259;28;20042;-67
2022/03/13 09:24:10;;;;;;;12.50;6.53;;;10.10;80.30;;;;;;4964608;28;20049;-66
2022/03/13 09:26:40;;;;;;;13.75;7.70;;;10.20;80.00;;;;;;4949432;28;20042;-66
2022/03/13 09:29:09;;;;;;;11.75;6.18;;;10.20;79.30;;;;;;4949588;28;20479;-67
2022/03/13 09:31:34;;;;;;;14.98;7.18;;;10.20;78.90;;;;;;4949733;28;20501;-67
2022/03/13 09:34:01;;;;;;;13.25;6.15;;;10.30;78.40;;;;;;4947108;28;20043;-67
2022/03/13 09:36:26;;;;;;;13.73;6.93;;;10.30;78.70;;;;;;4957770;28;20055;-66
2022/03/13 09:38:53;;;;;;;10.40;5.80;;;10.40;78.20;;;;;;4960955;28;20081;-67
2022/03/13 09:41:22;;;;;;;18.08;7.75;;;10.40;77.60;;;;;;4981748;28;20100;-67
2022/03/13 09:43:48;;;;;;;12.15;6.53;;;10.50;77.10;;;;;;4999420;28;20042;-67
2022/03/13 09:46:16;;;;;;;10.50;5.07;;;10.50;76.80;;;;;;4982874;28;20028;-67
2022/03/13 09:48:42;;;;;;;12.95;6.63;;;10.60;77.50;;;;;;4970503;28;20042;-67
2022/03/13 09:51:09;;;;;;;7.70;4.35;;;10.60;76.80;;;;;;4991696;28;20037;-67
2022/03/13 09:53:36;;;;;;;12.80;6.40;;;10.70;77.10;;;;;;4981569;28;20104;-66
2022/03/13 09:56:04;;;;;;;13.93;7.80;;;10.70;76.80;;;;;;4999979;28;20112;-66
2022/03/13 09:58:31;;;;;;;16.10;7.70;;;10.80;75.90;;;;;;4988785;28;20416;-66
2022/03/13 10:00:57;;;;;;;15.32;8.23;;;10.80;76.10;;;;;;5023266;28;20112;-66
2022/03/13 10:03:23;;;;;;;18.73;7.97;;;10.90;75.70;;;;;;4995368;28;20212;-67
2022/03/13 10:05:50;;;;;;;13.27;6.63;;;11.00;75.90;;;;;;4996960;28;20132;-67
2022/03/13 10:08:17;;;;;;;15.55;6.95;;;11.00;75.50;;;;;;5001627;28;20031;-67
2022/03/13 10:10:50;;;;;;;16.02;8.38;;;11.00;75.90;;;;;;5001821;28;20084;-67
2022/03/13 10:13:39;;;;;;;13.00;6.70;;;11.10;75.30;;;;;;5002053;28;20029;-66
2022/03/13 10:16:08;;;;;;;9.30;4.93;;;11.10;75.50;;;;;;5016545;28;20473;-67
2022/03/13 10:18:34;;;;;;;15.57;6.70;;;11.20;75.90;;;;;;5008181;28;20030;-67
2022/03/13 10:21:08;;;;;;;15.50;8.43;;;11.30;76.60;;;;;;5024782;28;20488;-67
2022/03/13 10:23:37;;;;;;;15.25;7.72;;;11.30;75.50;;;;;;4992426;28;20033;-66
2022/03/13 10:26:05;;;;;;;4.93;2.72;;;11.40;74.50;;;;;;5030139;28;20017;-67
2022/03/13 10:28:40;;;;;;;10.60;5.47;;;11.40;75.70;;;;;;4977470;28;20033;-66
2022/03/13 10:31:08;;;;;;;9.63;4.93;;;11.50;76.70;;;;;;4983744;28;20484;-66
2022/03/13 10:33:42;;;;;;;11.55;5.72;;;11.50;79.00;;;;;;4971333;28;20059;-66
2022/03/13 10:36:21;;;;;;;15.82;8.25;;;11.60;79.80;;;;;;4984334;28;20029;-66
2022/03/13 10:38:49;;;;;;;15.40;6.20;;;11.60;78.60;;;;;;5010717;28;20102;-66
2022/03/13 10:41:15;;;;;;;15.20;7.85;;;11.70;78.00;;;;;;4992344;28;20030;-67
2022/03/13 10:44:13;;;;;;;14.32;8.20;;;11.80;77.20;;;;;;5015154;28;20071;-66
2022/03/13 10:46:40;;;;;;;14.45;7.00;;;11.80;76.20;;;;;;5026893;28;20108;-66
2022/03/13 10:49:09;;;;;;;16.88;7.85;;;11.80;75.80;;;;;;4986341;28;20035;-66
2022/03/13 10:51:45;;;;;;;22.65;8.32;;;11.90;75.20;;;;;;5030617;28;20044;-66
2022/03/13 10:54:27;;;;;;;17.10;7.60;;;11.90;74.30;;;;;;4998471;28;20042;-66
2022/03/13 10:57:08;;;;;;;13.98;4.90;;;12.00;73.60;;;;;;5021291;28;20488;-66
2022/03/13 10:59:34;;;;;;;14.20;7.15;;;12.10;78.50;;;;;;4991123;28;20045;-66
2022/03/13 11:02:18;;;;;;;18.33;8.60;;;12.10;78.80;;;;;;4995712;28;20142;-66
2022/03/13 11:04:50;;;;;;;16.17;8.60;;;12.20;77.40;;;;;;5020483;28;20542;-67
2022/03/13 11:07:17;;;;;;;23.02;5.40;;;12.20;77.00;;;;;;5031468;28;20026;-66
2022/03/13 11:09:43;;;;;;;10.45;5.72;;;12.30;77.00;;;;;;4995485;28;20033;-67
2022/03/13 11:12:17;;;;;;;14.32;8.07;;;12.40;77.60;;;;;;5031463;28;20025;-67
2022/03/13 11:14:45;;;;;;;15.90;7.63;;;12.40;78.00;;;;;;5017539;28;20472;-67
2022/03/13 11:17:11;;;;;;;15.15;7.57;;;12.50;77.50;;;;;;4995925;28;20037;-70
2022/03/13 11:19:40;;;;;;;19.35;8.15;;;12.50;77.00;;;;;;5020106;28;20397;-71
2022/03/13 11:22:09;;;;;;;6.60;2.88;;;12.60;75.90;;;;;;4975639;28;20507;-69
2022/03/13 11:24:36;;;;;;;15.93;8.27;;;12.60;77.80;;;;;;4982841;28;20116;-67
2022/03/13 11:27:03;;;;;;;15.02;7.40;;;12.70;78.10;;;;;;4993450;28;20403;-66
2022/03/13 11:29:44;;;;;;;13.73;7.25;;;12.70;78.90;;;;;;5012877;28;20503;-67
2022/03/13 11:32:34;;;;;;;4.72;2.38;;;12.80;79.80;;;;;;4996996;28;20112;-66
2022/03/13 11:35:15;;;;;;;14.18;8.02;;;12.80;81.10;;;;;;5007632;28;20093;-67
2022/03/13 11:37:46;;;;;;;16.75;7.93;;;12.80;79.90;;;;;;4999688;28;20040;-67
2022/03/13 11:40:14;;;;;;;8.57;3.90;;;12.90;79.90;;;;;;4987205;28;20451;-66
2022/03/13 11:42:56;;;;;;;16.05;7.28;;;12.90;80.50;;;;;;4951182;28;20126;-66
2022/03/13 11:45:28;;;;;;;13.10;7.45;;;13.00;81.10;;;;;;4939260;28;20036;-67
2022/03/13 11:48:19;;;;;;;14.23;8.57;;;12.90;80.00;;;;;;4942961;28;20067;-66
2022/03/13 11:50:48;;;;;;;11.25;4.97;;;13.00;79.70;;;;;;4941702;28;20047;-66
2022/03/13 11:53:21;;;;;;;10.13;5.88;;;13.00;80.70;;;;;;4937929;28;20035;-66
2022/03/13 11:56:13;;;;;;;12.23;6.03;;;13.00;82.00;;;;;;4978248;28;20033;-66
2022/03/13 11:58:51;;;;;;;8.20;3.22;;;13.00;82.50;;;;;;4940758;28;20495;-66
2022/03/13 12:01:20;;;;;;;11.07;6.88;;;13.10;83.70;;;;;;4964114;28;20057;-66
2022/03/13 12:04:04;;;;;;;6.95;2.30;;;13.10;83.00;;;;;;4950719;28;20071;-66
2022/03/13 12:06:42;;;;;;;15.07;7.40;;;13.10;84.40;;;;;;4957054;28;20037;-66
2022/03/13 12:09:14;;;;;;;11.13;5.25;;;13.20;82.80;;;;;;5022250;28;20048;-67
2022/03/13 12:11:47;;;;;;;10.60;5.38;;;13.20;83.70;;;;;;5029684;28;20038;-66
2022/03/13 12:14:14;;;;;;;14.00;6.75;;;13.30;84.30;;;;;;4932479;28;20481;-66
2022/03/13 12:16:42;;;;;;;13.15;6.72;;;13.30;83.60;;;;;;4931805;28;20040;-66
2022/03/13 12:19:09;;;;;;;12.75;8.23;;;13.30;83.30;;;;;;4939776;28;20110;-66
2022/03/13 12:21:35;;;;;;;6.07;3.75;;;13.40;82.40;;;;;;4949564;28;20089;-67
2022/03/13 12:24:18;;;;;;;18.08;7.65;;;13.40;83.20;;;;;;4931947;28;20430;-71
2022/03/13 12:26:52;;;;;;;18.73;8.00;;;13.50;82.30;;;;;;4962451;28;20045;-67
2022/03/13 12:29:18;;;;;;;11.30;6.60;;;13.50;82.60;;;;;;4951446;28;20036;-67
2022/03/13 12:31:49;;;;;;;9.25;5.00;;;13.50;82.30;;;;;;4972111;28;20031;-67
2022/03/13 12:34:25;;;;;;;4.68;3.00;;;13.60;82.40;;;;;;4978764;28;20110;-70
2022/03/13 12:36:53;;;;;;;6.63;3.53;;;13.60;83.70;;;;;;4976608;28;20071;-71
2022/03/13 12:39:19;;;;;;;9.38;4.45;;;13.60;84.00;;;;;;4937728;28;20103;-71
2022/03/13 12:41:46;;;;;;;8.93;5.22;;;13.70;84.00;;;;;;4949623;28;20059;-74
2022/03/13 12:44:13;;;;;;;5.88;3.33;;;13.70;82.40;;;;;;4938666;29;20060;-73
2022/03/13 12:46:40;;;;;;;15.23;7.63;;;13.80;83.00;;;;;;4944013;28;20406;-70
2022/03/13 12:49:07;;;;;;;8.07;4.00;;;13.80;81.60;;;;;;4938289;28;20044;-70